createdAt,value
2023-02-12T00:01:26.049Z,1.41
2023-02-12T00:08:14.524Z,1.39
2023-02-12T00:10:43.771Z,1.36
2023-02-12T00:13:15.086Z,1.35
2023-02-12T00:15:43.876Z,1.35
2023-02-12T00:18:12.192Z,1.36
2023-02-12T00:20:40.505Z,1.36
2023-02-12T00:23:08.997Z,1.35
2023-02-12T00:25:40.730Z,1.33
2023-02-12T00:28:09.110Z,1.31
2023-02-12T00:30:37.378Z,1.29
2023-02-12T00:33:05.673Z,1.27
2023-02-12T00:35:34.078Z,1.25
2023-02-12T00:38:02.173Z,1.23
2023-02-12T00:40:30.616Z,1.23
2023-02-12T00:42:59.782Z,1.22
2023-02-12T00:45:28.245Z,1.22
2023-02-12T00:47:56.415Z,1.23
2023-02-12T00:50:24.766Z,1.23
2023-02-12T00:52:52.925Z,1.23
2023-02-12T00:55:21.042Z,1.26
2023-02-12T00:57:49.137Z,1.29
2023-02-12T01:00:22.505Z,1.32
2023-02-12T01:02:51.340Z,1.36
2023-02-12T01:05:19.931Z,1.39
2023-02-12T01:07:51.403Z,1.41
2023-02-12T01:10:20.952Z,1.43
2023-02-12T01:12:49.380Z,1.46
2023-02-12T01:15:18.989Z,1.48
2023-02-12T01:17:47.195Z,1.52
2023-02-12T01:20:20.665Z,1.56
2023-02-12T01:22:48.950Z,1.58
2023-02-12T01:25:20.121Z,1.61
2023-02-12T01:27:48.889Z,1.62
2023-02-12T01:30:17.161Z,1.63
2023-02-12T01:32:46.718Z,1.64
2023-02-12T01:35:14.983Z,1.64
2023-02-12T01:37:43.901Z,1.66
2023-02-12T01:40:19.184Z,1.68
2023-02-12T01:42:47.260Z,1.70
2023-02-12T01:45:16.894Z,1.71
2023-02-12T01:47:45.592Z,1.72
2023-02-12T01:50:16.736Z,1.72
2023-02-12T01:52:47.969Z,1.71
2023-02-12T01:55:16.597Z,1.71
2023-02-12T01:57:45.847Z,1.71
2023-02-12T02:00:25.301Z,1.70
2023-02-12T02:02:58.644Z,1.69
2023-02-12T02:05:48.646Z,1.69
2023-02-12T02:08:16.718Z,1.65
2023-02-12T02:10:45.307Z,1.60
2023-02-12T02:13:36.814Z,1.54
2023-02-12T02:16:31.910Z,1.47
2023-02-12T02:19:08.882Z,1.41
2023-02-12T02:22:06.466Z,1.38
2023-02-12T02:24:43.578Z,1.36
2023-02-12T02:28:04.293Z,1.33
2023-02-12T02:30:45.695Z,1.28
2023-02-12T02:33:20.343Z,1.21
2023-02-12T02:36:03.226Z,1.15
2023-02-12T02:38:43.490Z,1.10
2023-02-12T02:41:20.251Z,1.03
2023-02-12T02:43:49.756Z,0.96
2023-02-12T02:46:32.468Z,0.89
2023-02-12T02:49:02.774Z,0.84
2023-02-12T02:51:32.910Z,0.79
2023-02-12T02:54:37.812Z,0.76
2023-02-12T02:57:10.116Z,0.71
2023-02-12T02:59:43.695Z,0.69
2023-02-12T03:02:32.903Z,0.67
2023-02-12T03:05:11.106Z,0.65
2023-02-12T03:07:46.512Z,0.63
2023-02-12T03:10:20.011Z,0.61
2023-02-12T03:12:59.596Z,0.59
2023-02-12T03:15:34.388Z,0.58
2023-02-12T03:18:04.171Z,0.57
2023-02-12T03:20:36.108Z,0.56
2023-02-12T03:23:10.591Z,0.54
2023-02-12T03:25:41.300Z,0.52
2023-02-12T03:28:17.036Z,0.49
2023-02-12T03:31:06.730Z,0.47
2023-02-12T03:34:02.442Z,0.43
2023-02-12T03:36:36.753Z,0.38
2023-02-12T03:39:28.330Z,0.34
2023-02-12T03:42:05.719Z,0.29
2023-02-12T03:44:43.170Z,0.24
2023-02-12T03:47:21.797Z,0.20
2023-02-12T03:50:14.507Z,0.16
2023-02-12T03:52:43.594Z,0.11
2023-02-12T03:55:11.992Z,0.06
2023-02-12T03:57:45.655Z,0.03
2023-02-12T04:00:19.996Z,-0.02
2023-02-12T04:02:49.116Z,-0.06
2023-02-12T04:05:25.891Z,-0.11
2023-02-12T04:07:55.152Z,-0.14
2023-02-12T04:10:45.774Z,-0.17
2023-02-12T04:13:33.203Z,-0.21
2023-02-12T04:16:46.961Z,-0.24
2023-02-12T04:19:15.704Z,-0.28
2023-02-12T04:21:50.807Z,-0.32
2023-02-12T04:24:24.399Z,-0.34
2023-02-12T04:27:12.236Z,-0.36
2023-02-12T04:29:48.299Z,-0.38
2023-02-12T04:32:36.243Z,-0.41
2023-02-12T04:35:10.926Z,-0.43
2023-02-12T04:37:40.826Z,-0.46
2023-02-12T04:40:13.175Z,-0.49
2023-02-12T04:42:46.843Z,-0.51
2023-02-12T04:45:16.924Z,-0.55
2023-02-12T04:47:45.044Z,-0.59
2023-02-12T04:50:13.597Z,-0.64
2023-02-12T04:52:42.220Z,-0.67
2023-02-12T04:55:10.479Z,-0.69
2023-02-12T04:57:38.562Z,-0.71
2023-02-12T05:00:08.427Z,-0.74
2023-02-12T05:02:36.811Z,-0.77
2023-02-12T05:05:05.430Z,-0.80
2023-02-12T05:07:33.644Z,-0.83
2023-02-12T05:10:02.650Z,-0.85
2023-02-12T05:12:39.825Z,-0.88
2023-02-12T05:15:09.464Z,-0.91
2023-02-12T05:17:38.329Z,-0.93
2023-02-12T05:20:06.938Z,-0.96
2023-02-12T05:22:35.560Z,-0.97
2023-02-12T05:25:04.328Z,-0.99
2023-02-12T05:27:32.966Z,-1.00
2023-02-12T05:30:05.692Z,-1.01
2023-02-12T05:32:34.229Z,-1.01
2023-02-12T05:35:08.452Z,-1.01
2023-02-12T05:37:40.253Z,-0.99
2023-02-12T05:40:09.628Z,-0.99
2023-02-12T05:42:38.528Z,-0.98
2023-02-12T05:45:07.178Z,-0.98
2023-02-12T05:47:35.772Z,-0.97
2023-02-12T05:50:07.750Z,-0.97
2023-02-12T05:52:36.058Z,-0.96
2023-02-12T05:55:04.384Z,-0.95
2023-02-12T05:57:34.043Z,-0.95
2023-02-12T06:00:02.760Z,-0.95
2023-02-12T06:02:40.814Z,-0.95
2023-02-12T06:05:09.158Z,-0.94
2023-02-12T06:07:38.149Z,-0.96
2023-02-12T06:10:06.992Z,-0.97
2023-02-12T06:12:35.248Z,-0.97
2023-02-12T06:15:03.529Z,-0.97
2023-02-12T06:17:34.122Z,-0.99
2023-02-12T06:20:02.382Z,-0.98
2023-02-12T06:22:30.717Z,-0.98
2023-02-12T06:25:00.887Z,-0.99
2023-02-12T06:27:29.355Z,-1.00
2023-02-12T06:29:57.646Z,-1.02
2023-02-12T06:32:26.219Z,-1.07
2023-02-12T06:34:54.372Z,-1.11
2023-02-12T06:37:23.073Z,-1.12
2023-02-12T06:39:51.201Z,-1.14
2023-02-12T06:42:19.902Z,-1.15
2023-02-12T06:44:48.100Z,-1.17
2023-02-12T06:47:17.367Z,-1.18
2023-02-12T06:49:45.522Z,-1.18
2023-02-12T06:52:14.390Z,-1.15
2023-02-12T06:54:42.640Z,-1.11
2023-02-12T06:57:10.840Z,-1.07
2023-02-12T06:59:39.434Z,-1.02
2023-02-12T07:02:09.532Z,-0.99
2023-02-12T07:04:39.351Z,-0.96
2023-02-12T07:07:10.234Z,-0.94
2023-02-12T07:09:40.738Z,-0.91
2023-02-12T07:12:08.971Z,-0.88
2023-02-12T07:14:37.825Z,-0.86
2023-02-12T07:17:07.984Z,-0.84
2023-02-12T07:19:36.562Z,-0.84
2023-02-12T07:22:04.874Z,-0.84
2023-02-12T07:24:33.212Z,-0.85
2023-02-12T07:27:03.945Z,-0.86
2023-02-12T07:29:33.975Z,-0.85
2023-02-12T07:32:02.247Z,-0.83
2023-02-12T07:34:30.680Z,-0.83
2023-02-12T07:36:59.309Z,-0.82
2023-02-12T07:39:29.893Z,-0.82
2023-02-12T07:41:58.256Z,-0.84
2023-02-12T07:44:26.761Z,-0.85
2023-02-12T07:46:54.949Z,-0.83
2023-02-12T07:49:23.160Z,-0.81
2023-02-12T07:51:51.270Z,-0.77
2023-02-12T07:54:23.676Z,-0.73
2023-02-12T07:56:52.316Z,-0.69
2023-02-12T07:59:21.591Z,-0.68
2023-02-12T08:01:51.317Z,-0.72
2023-02-12T08:04:21.185Z,-0.72
2023-02-12T08:06:51.111Z,-0.73
2023-02-12T08:09:25.371Z,-0.75
2023-02-12T08:11:53.395Z,-0.77
2023-02-12T08:14:22.145Z,-0.77
2023-02-12T08:16:50.880Z,-0.76
2023-02-12T08:19:22.753Z,-0.74
2023-02-12T08:21:55.312Z,-0.72
2023-02-12T08:24:24.368Z,-0.69
2023-02-12T08:26:52.847Z,-0.65
2023-02-12T08:29:24.272Z,-0.61
2023-02-12T08:31:58.146Z,-0.58
2023-02-12T08:34:28.671Z,-0.56
2023-02-12T08:36:58.284Z,-0.58
2023-02-12T08:39:27.357Z,-0.61
2023-02-12T08:41:57.192Z,-0.60
2023-02-12T08:44:25.350Z,-0.58
2023-02-12T08:46:53.816Z,-0.57
2023-02-12T08:49:29.998Z,-0.55
2023-02-12T08:51:59.324Z,-0.52
2023-02-12T08:54:29.506Z,-0.49
2023-02-12T08:56:59.401Z,-0.49
2023-02-12T08:59:28.988Z,-0.48
2023-02-12T09:02:01.046Z,-0.47
2023-02-12T09:04:30.154Z,-0.44
2023-02-12T09:06:59.746Z,-0.40
2023-02-12T09:09:28.401Z,-0.37
2023-02-12T09:12:01.066Z,-0.35
2023-02-12T09:14:29.665Z,-0.32
2023-02-12T09:16:58.475Z,-0.29
2023-02-12T09:19:26.959Z,-0.27
2023-02-12T09:21:56.641Z,-0.28
2023-02-12T09:24:26.218Z,-0.29
2023-02-12T09:26:55.175Z,-0.30
2023-02-12T09:29:24.267Z,-0.27
2023-02-12T09:31:52.511Z,-0.25
2023-02-12T09:34:24.870Z,-0.24
2023-02-12T09:36:53.697Z,-0.25
2023-02-12T09:39:22.103Z,-0.27
2023-02-12T09:42:11.198Z,-0.27
2023-02-12T09:44:43.071Z,-0.23
2023-02-12T09:47:45.053Z,-0.21
2023-02-12T09:50:29.813Z,-0.22
2023-02-12T09:52:59.452Z,-0.22
2023-02-12T09:55:31.992Z,-0.17
2023-02-12T09:58:05.609Z,-0.14
2023-02-12T10:00:33.876Z,-0.11
2023-02-12T10:03:05.473Z,-0.10
2023-02-12T10:05:57.543Z,-0.10
2023-02-12T10:08:49.170Z,-0.09
2023-02-12T10:11:39.797Z,-0.06
2023-02-12T10:14:26.062Z,-0.02
2023-02-12T10:16:54.115Z,0.01
2023-02-12T10:19:32.763Z,0.06
2023-02-12T10:22:07.433Z,0.14
2023-02-12T10:24:57.578Z,0.19
2023-02-12T10:27:47.126Z,0.22
2023-02-12T10:30:22.534Z,0.26
2023-02-12T10:33:01.070Z,0.29
2023-02-12T10:35:29.554Z,0.32
2023-02-12T10:38:04.210Z,0.36
2023-02-12T10:40:34.140Z,0.41
2023-02-12T10:43:03.324Z,0.45
2023-02-12T10:45:33.892Z,0.52
2023-02-12T10:48:15.227Z,0.60
2023-02-12T10:50:50.696Z,0.63
2023-02-12T10:53:30.020Z,0.61
2023-02-12T10:56:06.782Z,0.62
2023-02-12T10:58:35.942Z,0.65
2023-02-12T11:01:04.534Z,0.66
2023-02-12T11:03:38.279Z,0.67
2023-02-12T11:06:14.645Z,0.68
2023-02-12T11:08:43.568Z,0.73
2023-02-12T11:11:27.380Z,0.79
2023-02-12T11:14:01.256Z,0.84
2023-02-12T11:16:33.799Z,0.90
2023-02-12T11:19:04.892Z,0.98
2023-02-12T11:21:34.215Z,1.07
2023-02-12T11:24:23.296Z,1.11
2023-02-12T11:26:51.794Z,1.13
2023-02-12T11:29:21.929Z,1.13
2023-02-12T11:32:04.968Z,1.11
2023-02-12T11:34:33.555Z,1.08
2023-02-12T11:37:02.162Z,1.08
2023-02-12T11:39:35.948Z,1.10
2023-02-12T11:42:15.011Z,1.12
2023-02-12T11:44:44.575Z,1.16
2023-02-12T11:47:18.830Z,1.17
2023-02-12T11:49:50.898Z,1.15
2023-02-12T11:52:26.482Z,1.16
2023-02-12T11:54:57.714Z,1.19
2023-02-12T11:57:46.955Z,1.21
2023-02-12T12:00:35.929Z,1.21
2023-02-12T12:03:16.408Z,1.22
2023-02-12T12:05:47.346Z,1.24
2023-02-12T12:08:36.578Z,1.29
2023-02-12T12:11:16.570Z,1.30
2023-02-12T12:13:48.975Z,1.27
2023-02-12T12:16:48.968Z,1.28
2023-02-12T12:19:39.148Z,1.33
2023-02-12T12:22:27.927Z,1.37
2023-02-12T12:24:58.492Z,1.38
2023-02-12T12:28:16.407Z,1.38
2023-02-12T12:30:59.965Z,1.38
2023-02-12T12:33:44.833Z,1.40
2023-02-12T12:36:13.214Z,1.40
2023-02-12T12:38:59.009Z,1.42
2023-02-12T12:41:30.275Z,1.45
2023-02-12T12:44:05.146Z,1.47
2023-02-12T12:46:50.308Z,1.47
2023-02-12T12:49:32.431Z,1.45
2023-02-12T12:52:22.127Z,1.45
2023-02-12T12:55:14.916Z,1.46
2023-02-12T12:58:06.286Z,1.47
2023-02-12T13:00:41.581Z,1.49
2023-02-12T13:03:40.851Z,1.52
2023-02-12T13:06:46.239Z,1.54
2023-02-12T13:09:26.809Z,1.56
2023-02-12T13:12:15.556Z,1.57
2023-02-12T13:15:07.437Z,1.60
2023-02-12T13:18:17.548Z,1.64
2023-02-12T13:20:55.475Z,1.67
2023-02-12T13:23:31.224Z,1.70
2023-02-12T13:26:11.600Z,1.72
2023-02-12T13:28:42.504Z,1.74
2023-02-12T13:31:31.930Z,1.74
2023-02-12T13:34:08.078Z,1.75
2023-02-12T13:36:38.166Z,1.77
2023-02-12T13:39:35.833Z,1.78
2023-02-12T13:42:34.561Z,1.80
2023-02-12T13:45:14.928Z,1.81
2023-02-12T13:48:25.978Z,1.81
2023-02-12T13:51:38.927Z,1.77
2023-02-12T13:54:25.530Z,1.78
2023-02-12T13:56:58.107Z,1.78
2023-02-12T13:59:37.086Z,1.79
2023-02-12T14:02:33.416Z,1.79
2023-02-12T14:05:03.547Z,1.79
2023-02-12T14:07:49.310Z,1.76
2023-02-12T14:10:27.004Z,1.73
2023-02-12T14:12:58.309Z,1.69
2023-02-12T14:15:36.558Z,1.68
2023-02-12T14:18:25.596Z,1.67
2023-02-12T14:21:12.190Z,1.66
2023-02-12T14:23:42.577Z,1.65
2023-02-12T14:26:10.663Z,1.63
2023-02-12T14:28:59.456Z,1.60
2023-02-12T14:31:28.065Z,1.57
2023-02-12T14:34:05.526Z,1.56
2023-02-12T14:36:33.824Z,1.54
2023-02-12T14:39:04.319Z,1.52
2023-02-12T14:41:39.256Z,1.49
2023-02-12T14:44:30.699Z,1.46
2023-02-12T14:47:05.291Z,1.43
2023-02-12T14:49:34.718Z,1.37
2023-02-12T14:52:06.750Z,1.33
2023-02-12T14:54:45.946Z,1.30
2023-02-12T14:57:27.527Z,1.27
2023-02-12T15:00:01.446Z,1.24
2023-02-12T15:02:33.732Z,1.20
2023-02-12T15:05:05.564Z,1.16
2023-02-12T15:07:38.342Z,1.12
2023-02-12T15:10:35.020Z,1.09
2023-02-12T15:13:22.701Z,1.06
2023-02-12T15:16:27.416Z,1.03
2023-02-12T15:19:14.949Z,0.98
2023-02-12T15:21:44.288Z,0.95
2023-02-12T15:24:14.577Z,0.91
2023-02-12T15:26:48.547Z,0.89
2023-02-12T15:29:26.744Z,0.85
2023-02-12T15:32:00.199Z,0.81
2023-02-12T15:34:31.018Z,0.79
2023-02-12T15:37:01.258Z,0.77
2023-02-12T15:40:02.989Z,0.75
2023-02-12T15:42:37.965Z,0.74
2023-02-12T15:45:08.644Z,0.71
2023-02-12T15:47:39.019Z,0.69
2023-02-12T15:50:12.262Z,0.68
2023-02-12T15:52:42.080Z,0.66
2023-02-12T15:55:18.626Z,0.64
2023-02-12T15:57:55.471Z,0.63
2023-02-12T16:00:43.288Z,0.63
2023-02-12T16:03:26.815Z,0.62
2023-02-12T16:05:57.293Z,0.60
2023-02-12T16:08:29.229Z,0.58
2023-02-12T16:10:58.466Z,0.56
2023-02-12T16:13:34.740Z,0.55
2023-02-12T16:16:28.142Z,0.55
2023-02-12T16:19:07.120Z,0.54
2023-02-12T16:21:39.084Z,0.51
2023-02-12T16:24:38.176Z,0.49
2023-02-12T16:27:47.089Z,0.46
2023-02-12T16:30:31.558Z,0.45
2023-02-12T16:33:01.770Z,0.43
2023-02-12T16:35:34.372Z,0.41
2023-02-12T16:38:40.428Z,0.37
2023-02-12T16:41:32.948Z,0.33
2023-02-12T16:44:01.695Z,0.29
2023-02-12T16:46:34.694Z,0.23
2023-02-12T16:49:03.624Z,0.20
2023-02-12T16:51:34.321Z,0.17
2023-02-12T16:54:04.037Z,0.13
2023-02-12T16:56:34.538Z,0.11
2023-02-12T16:59:03.012Z,0.07
2023-02-12T17:01:33.574Z,0.05
2023-02-12T17:04:06.891Z,0.03
2023-02-12T17:06:35.154Z,-0.01
2023-02-12T17:09:04.982Z,-0.05
2023-02-12T17:11:33.890Z,-0.08
2023-02-12T17:14:02.414Z,-0.11
2023-02-12T17:16:32.154Z,-0.12
2023-02-12T17:19:06.860Z,-0.14
2023-02-12T17:21:39.694Z,-0.15
2023-02-12T17:24:18.578Z,-0.14
2023-02-12T17:26:50.581Z,-0.14
2023-02-12T17:29:19.652Z,-0.14
2023-02-12T17:31:51.755Z,-0.14
2023-02-12T17:34:20.599Z,-0.15
2023-02-12T17:36:49.281Z,-0.13
2023-02-12T17:39:17.841Z,-0.13
2023-02-12T17:41:46.516Z,-0.13
2023-02-12T17:44:15.701Z,-0.13
2023-02-12T17:46:45.486Z,-0.12
2023-02-12T17:49:14.078Z,-0.12
2023-02-12T17:51:43.431Z,-0.12
2023-02-12T17:54:12.517Z,-0.14
2023-02-12T17:56:42.211Z,-0.16
2023-02-12T17:59:10.720Z,-0.17
2023-02-12T18:01:40.730Z,-0.20
2023-02-12T18:04:14.742Z,-0.22
2023-02-12T18:06:43.890Z,-0.23
2023-02-12T18:09:12.435Z,-0.25
2023-02-12T18:11:42.594Z,-0.29
2023-02-12T18:14:11.747Z,-0.31
2023-02-12T18:16:42.327Z,-0.32
2023-02-12T18:19:10.794Z,-0.33
2023-02-12T18:21:39.143Z,-0.35
2023-02-12T18:24:09.127Z,-0.35
2023-02-12T18:26:37.449Z,-0.38
2023-02-12T18:29:06.872Z,-0.39
2023-02-12T18:31:35.390Z,-0.40
2023-02-12T18:34:07.400Z,-0.42
2023-02-12T18:36:38.312Z,-0.46
2023-02-12T18:39:07.098Z,-0.48
2023-02-12T18:41:36.344Z,-0.50
2023-02-12T18:44:06.151Z,-0.54
2023-02-12T18:46:34.704Z,-0.56
2023-02-12T18:49:05.232Z,-0.57
2023-02-12T18:51:37.638Z,-0.58
2023-02-12T18:54:08.382Z,-0.59
2023-02-12T18:56:40.275Z,-0.60
2023-02-12T18:59:09.120Z,-0.62
2023-02-12T19:01:38.836Z,-0.63
2023-02-12T19:04:08.321Z,-0.64
2023-02-12T19:06:46.374Z,-0.66
2023-02-12T19:09:20.711Z,-0.67
2023-02-12T19:11:53.951Z,-0.70
2023-02-12T19:14:24.476Z,-0.72
2023-02-12T19:16:53.891Z,-0.75
2023-02-12T19:19:24.214Z,-0.75
2023-02-12T19:21:54.716Z,-0.75
2023-02-12T19:24:24.077Z,-0.73
2023-02-12T19:26:54.765Z,-0.71
2023-02-12T19:29:24.800Z,-0.70
2023-02-12T19:31:55.711Z,-0.70
2023-02-12T19:34:25.018Z,-0.71
2023-02-12T19:36:54.251Z,-0.72
2023-02-12T19:39:23.764Z,-0.71
2023-02-12T19:41:52.118Z,-0.71
2023-02-12T19:44:21.541Z,-0.70
2023-02-12T19:46:51.327Z,-0.70
2023-02-12T19:49:22.684Z,-0.72
2023-02-12T19:51:51.139Z,-0.72
2023-02-12T19:54:20.784Z,-0.72
2023-02-12T19:56:49.324Z,-0.71
2023-02-12T19:59:18.495Z,-0.72
2023-02-12T20:01:46.985Z,-0.71
2023-02-12T20:04:19.154Z,-0.71
2023-02-12T20:06:47.529Z,-0.72
2023-02-12T20:09:16.823Z,-0.71
2023-02-12T20:11:45.050Z,-0.71
2023-02-12T20:14:14.318Z,-0.72
2023-02-12T20:16:44.783Z,-0.73
2023-02-12T20:19:19.394Z,-0.74
2023-02-12T20:21:53.329Z,-0.74
2023-02-12T20:24:22.720Z,-0.76
2023-02-12T20:26:50.884Z,-0.78
2023-02-12T20:29:19.168Z,-0.81
2023-02-12T20:31:47.829Z,-0.82
2023-02-12T20:34:17.249Z,-0.83
2023-02-12T20:36:46.823Z,-0.83
2023-02-12T20:39:16.890Z,-0.85
2023-02-12T20:41:45.379Z,-0.86
2023-02-12T20:44:16.220Z,-0.87
2023-02-12T20:46:46.012Z,-0.89
2023-02-12T20:49:15.040Z,-0.91
2023-02-12T20:51:43.364Z,-0.93
2023-02-12T20:54:12.031Z,-0.93
2023-02-12T20:56:40.246Z,-0.95
2023-02-12T20:59:08.547Z,-0.95
2023-02-12T21:01:39.448Z,-0.97
2023-02-12T21:04:12.865Z,-0.98
2023-02-12T21:06:41.730Z,-0.99
2023-02-12T21:09:10.409Z,-1.01
2023-02-12T21:11:42.295Z,-1.03
2023-02-12T21:14:21.744Z,-1.07
2023-02-12T21:16:51.418Z,-1.09
2023-02-12T21:19:22.258Z,-1.11
2023-02-12T21:21:50.423Z,-1.13
2023-02-12T21:24:22.053Z,-1.15
2023-02-12T21:26:51.378Z,-1.16
2023-02-12T21:29:19.938Z,-1.18
2023-02-12T21:31:49.033Z,-1.19
2023-02-12T21:34:21.920Z,-1.20
2023-02-12T21:36:50.744Z,-1.21
2023-02-12T21:39:25.144Z,-1.22
2023-02-12T21:41:58.612Z,-1.22
2023-02-12T21:44:26.978Z,-1.21
2023-02-12T21:46:56.085Z,-1.22
2023-02-12T21:49:26.638Z,-1.21
2023-02-12T21:51:57.326Z,-1.22
2023-02-12T21:54:25.788Z,-1.23
2023-02-12T21:56:54.197Z,-1.23
2023-02-12T21:59:24.983Z,-1.23
2023-02-12T22:01:55.550Z,-1.23
2023-02-12T22:04:25.059Z,-1.23
2023-02-12T22:06:54.125Z,-1.25
2023-02-12T22:09:22.599Z,-1.25
2023-02-12T22:11:52.596Z,-1.24
2023-02-12T22:14:21.448Z,-1.24
2023-02-12T22:16:50.080Z,-1.25
2023-02-12T22:19:18.345Z,-1.26
2023-02-12T22:21:46.560Z,-1.27
2023-02-12T22:24:15.970Z,-1.29
2023-02-12T22:26:44.369Z,-1.31
2023-02-12T22:29:14.346Z,-1.33
2023-02-12T22:31:43.716Z,-1.34
2023-02-12T22:34:15.299Z,-1.36
2023-02-12T22:36:44.104Z,-1.38
2023-02-12T22:39:13.235Z,-1.39
2023-02-12T22:41:42.568Z,-1.40
2023-02-12T22:44:12.270Z,-1.41
2023-02-12T22:46:42.519Z,-1.42
2023-02-12T22:49:11.019Z,-1.42
2023-02-12T22:51:40.051Z,-1.42
2023-02-12T22:54:13.561Z,-1.43
2023-02-12T22:56:42.388Z,-1.43
2023-02-12T22:59:11.340Z,-1.43
2023-02-12T23:01:40.446Z,-1.43
2023-02-12T23:04:14.342Z,-1.45
2023-02-12T23:06:42.872Z,-1.45
2023-02-12T23:09:13.822Z,-1.46
2023-02-12T23:11:42.030Z,-1.47
2023-02-12T23:14:12.351Z,-1.49
2023-02-12T23:16:42.026Z,-1.53
2023-02-12T23:19:11.570Z,-1.57
2023-02-12T23:21:40.588Z,-1.62
2023-02-12T23:24:12.123Z,-1.65
2023-02-12T23:26:40.551Z,-1.68
2023-02-12T23:29:08.951Z,-1.72
2023-02-12T23:31:38.058Z,-1.74
2023-02-12T23:34:06.308Z,-1.76
2023-02-12T23:36:34.717Z,-1.79
2023-02-12T23:39:05.924Z,-1.81
2023-02-12T23:41:34.192Z,-1.82
2023-02-12T23:44:02.357Z,-1.84
2023-02-12T23:46:30.881Z,-1.86
2023-02-12T23:48:59.559Z,-1.88
2023-02-12T23:51:28.017Z,-1.90
2023-02-12T23:53:57.680Z,-1.92
2023-02-12T23:56:25.968Z,-1.94
2023-02-12T23:58:57.892Z,-1.95
